Time;durP1;ratioP1;P1;durP2;ratioP2;P2;SDS_P1;SDS_P2;PMS_P1;PMS_P2;Temp;Humidity;BMP_temperature;BMP_pressure;BME280_temperature;BME280_humidity;BME280_pressure;Samples;Min_cycle;Max_cycle;Signal;HPM_P1;HPM_P2
2021/03/19 00:16:20;;;;;;;41.85;19.85;;;3.70;99.90;;;;;;6207450;22;20370;31
2021/03/19 00:21:47;;;;;;;36.78;17.58;;;3.70;99.90;;;;;;6292049;22;20007;-85
2021/03/19 00:27:12;;;;;;;25.88;12.25;;;3.60;99.90;;;;;;6245410;22;20004;-82
2021/03/19 00:29:42;;;;;;;18.67;8.90;;;3.60;99.90;;;;;;6211108;22;20022;-84
2021/03/19 00:38:04;;;;;;;9.57;4.53;;;3.50;99.90;;;;;;6203478;22;20035;-82
2021/03/19 00:40:38;;;;;;;7.25;4.22;;;3.50;99.90;;;;;;6244734;22;20026;-82
2021/03/19 02:17:17;;;;;;;38.83;18.70;;;3.60;99.90;;;;;;6230772;22;20038;-90
2021/03/19 02:20:22;;;;;;;38.63;18.02;;;3.60;99.90;;;;;;6226617;22;20514;-93
2021/03/19 02:23:28;;;;;;;37.72;18.00;;;3.50;99.90;;;;;;6252579;22;20027;-93
2021/03/19 02:26:33;;;;;;;39.25;18.13;;;3.30;99.90;;;;;;6226866;22;20026;-93
2021/03/19 02:29:42;;;;;;;35.92;17.75;;;3.20;99.90;;;;;;6228289;22;20296;-91
2021/03/19 02:32:16;;;;;;;30.85;16.20;;;3.20;99.90;;;;;;6250098;22;20012;-93
2021/03/19 02:34:48;;;;;;;34.97;18.45;;;3.30;99.90;;;;;;6237758;22;20023;-93
2021/03/19 02:37:19;;;;;;;29.25;15.13;;;3.40;99.90;;;;;;6226674;22;20026;-93
2021/03/19 02:39:47;;;;;;;27.52;13.85;;;3.40;99.90;;;;;;6227218;22;20319;-91
2021/03/19 02:42:20;;;;;;;26.52;14.73;;;3.30;99.90;;;;;;6229182;22;20015;-93
2021/03/19 02:44:49;;;;;;;28.90;15.30;;;3.40;99.90;;;;;;6202715;22;20016;-93
2021/03/19 02:47:18;;;;;;;33.40;15.80;;;3.40;99.90;;;;;;6227101;22;20030;-94
2021/03/19 02:49:46;;;;;;;29.15;14.57;;;3.40;99.90;;;;;;6233509;22;20019;-93
2021/03/19 02:52:18;;;;;;;33.78;15.90;;;3.40;99.90;;;;;;6257986;22;20026;-91
2021/03/19 02:55:04;;;;;;;25.70;14.55;;;3.40;99.90;;;;;;6258115;22;20030;-93
2021/03/19 02:57:35;;;;;;;29.27;14.75;;;3.30;99.90;;;;;;6229121;22;20020;-93
2021/03/19 03:00:07;;;;;;;24.13;14.00;;;3.30;99.90;;;;;;6230006;22;20015;-92
2021/03/19 03:02:35;;;;;;;26.50;12.60;;;3.40;99.90;;;;;;6227696;22;20015;-94
2021/03/19 03:05:04;;;;;;;26.05;13.57;;;3.40;99.90;;;;;;6258354;22;20015;-94
2021/03/19 03:07:32;;;;;;;26.75;12.77;;;3.40;99.90;;;;;;6258437;22;20037;-92
2021/03/19 03:10:03;;;;;;;24.52;12.95;;;3.30;99.90;;;;;;6257933;22;20484;-92
2021/03/19 03:12:30;;;;;;;29.38;12.80;;;3.40;99.90;;;;;;6258229;22;20015;-93
2021/03/19 03:14:58;;;;;;;23.60;13.00;;;3.30;99.90;;;;;;6260176;22;20020;-93
2021/03/19 03:17:25;;;;;;;24.90;12.90;;;3.30;99.90;;;;;;6252951;22;20019;-93
2021/03/19 03:19:55;;;;;;;25.52;13.57;;;3.40;99.90;;;;;;6278225;22;20323;-95
2021/03/19 03:22:25;;;;;;;27.75;13.57;;;3.30;99.90;;;;;;6255470;22;20034;-93
2021/03/19 03:24:54;;;;;;;25.83;13.13;;;3.30;99.90;;;;;;6283822;22;20015;-94
2021/03/19 03:27:22;;;;;;;25.80;13.95;;;3.30;99.90;;;;;;6266227;22;20026;-92
2021/03/19 03:29:49;;;;;;;26.40;13.73;;;3.20;99.90;;;;;;6259305;22;20016;-92
2021/03/19 03:32:19;;;;;;;28.92;14.05;;;3.30;99.90;;;;;;6266751;22;20026;-91
2021/03/19 03:34:47;;;;;;;24.55;13.20;;;3.30;99.90;;;;;;6262871;22;20016;-94
2021/03/19 03:37:29;;;;;;;28.58;14.23;;;3.40;99.90;;;;;;6238906;22;20019;-93
2021/03/19 03:40:04;;;;;;;25.85;13.27;;;3.40;99.90;;;;;;6239697;22;20026;-93
2021/03/19 03:42:38;;;;;;;23.90;12.82;;;3.30;99.90;;;;;;6242512;22;20023;-93
2021/03/19 03:45:13;;;;;;;17.48;9.10;;;3.20;99.90;;;;;;6264279;22;20019;-93
2021/03/19 03:47:42;;;;;;;19.88;9.73;;;3.10;99.90;;;;;;6235517;22;20015;-91
2021/03/19 03:50:14;;;;;;;13.37;7.07;;;3.00;99.90;;;;;;6257457;22;20031;-92
2021/03/19 03:52:42;;;;;;;18.70;9.50;;;2.90;99.90;;;;;;6257683;22;20012;-91
2021/03/19 03:55:13;;;;;;;22.88;10.60;;;2.70;99.90;;;;;;6243307;22;20020;-93
2021/03/19 03:57:42;;;;;;;23.33;12.00;;;2.70;99.90;;;;;;6241067;22;20020;-92
2021/03/19 04:00:16;;;;;;;22.20;11.88;;;2.60;99.90;;;;;;6243464;22;20025;-95
2021/03/19 04:02:50;;;;;;;21.08;11.88;;;2.60;99.90;;;;;;6271061;22;20319;-93
2021/03/19 04:05:23;;;;;;;30.35;14.75;;;2.60;99.90;;;;;;6241905;22;20020;-94
2021/03/19 04:07:58;;;;;;;53.55;27.50;;;2.70;99.90;;;;;;6252116;22;20100;-92
2021/03/19 04:10:28;;;;;;;28.55;14.35;;;2.70;99.90;;;;;;6234989;22;20334;-93
2021/03/19 04:13:00;;;;;;;27.17;13.97;;;2.70;99.90;;;;;;6230134;22;20022;-93
2021/03/19 04:15:29;;;;;;;27.73;12.50;;;2.70;99.90;;;;;;6205466;22;20026;-94
2021/03/19 04:17:58;;;;;;;25.77;12.93;;;2.70;99.90;;;;;;6232717;22;20024;-92
2021/03/19 04:20:29;;;;;;;24.52;11.35;;;2.60;99.90;;;;;;6293363;22;20025;-93
2021/03/19 04:22:59;;;;;;;23.03;13.07;;;2.70;99.90;;;;;;6299927;22;20012;-93
2021/03/19 04:25:27;;;;;;;31.77;15.30;;;2.70;99.90;;;;;;6266843;22;20026;-92
2021/03/19 04:27:57;;;;;;;22.00;11.18;;;2.60;99.90;;;;;;6255582;22;20030;-92
2021/03/19 04:30:29;;;;;;;14.70;7.85;;;2.60;99.90;;;;;;6256090;22;20427;-94
2021/03/19 04:32:59;;;;;;;15.13;6.97;;;2.70;99.90;;;;;;6254527;22;20016;-92
2021/03/19 04:35:31;;;;;;;13.73;7.40;;;2.70;99.90;;;;;;6254615;22;20027;-92
2021/03/19 04:38:06;;;;;;;16.70;9.00;;;2.70;99.90;;;;;;6255085;22;20423;-93
2021/03/19 04:40:35;;;;;;;21.20;9.67;;;2.60;99.90;;;;;;6229416;22;20023;-94
2021/03/19 04:43:04;;;;;;;20.98;10.43;;;2.60;99.90;;;;;;6280049;22;20320;-94
2021/03/19 04:45:38;;;;;;;23.38;10.93;;;2.60;99.90;;;;;;6280321;22;20026;-94
2021/03/19 04:48:09;;;;;;;21.83;10.57;;;2.60;99.90;;;;;;6257354;22;20034;-93
2021/03/19 04:50:37;;;;;;;30.65;13.73;;;2.60;99.90;;;;;;6270298;22;20007;-94
2021/03/19 04:53:08;;;;;;;25.83;13.10;;;2.70;99.90;;;;;;6244345;22;20023;-93
2021/03/19 04:55:36;;;;;;;27.67;13.63;;;2.70;99.90;;;;;;6246629;22;20020;-94
2021/03/19 04:58:07;;;;;;;31.08;13.30;;;2.70;99.90;;;;;;6245477;22;20024;-94
2021/03/19 05:00:39;;;;;;;25.23;12.52;;;2.80;99.90;;;;;;6275764;22;20026;-95
2021/03/19 05:03:21;;;;;;;27.23;13.82;;;2.90;99.90;;;;;;6253032;22;20081;-94
2021/03/19 05:05:49;;;;;;;28.70;13.25;;;2.80;99.90;;;;;;6273884;22;20058;-93
2021/03/19 05:08:17;;;;;;;23.77;12.40;;;2.80;99.90;;;;;;6262328;22;20407;-93
2021/03/19 05:10:45;;;;;;;23.67;11.95;;;2.90;99.90;;;;;;6229941;22;20042;-93
2021/03/19 05:13:13;;;;;;;19.77;10.98;;;2.90;99.90;;;;;;6231220;22;20060;-92
2021/03/19 05:15:41;;;;;;;20.55;10.65;;;3.00;99.90;;;;;;6255387;22;20019;-92
2021/03/19 05:18:09;;;;;;;21.35;10.90;;;3.00;99.90;;;;;;6255284;22;20034;-95
2021/03/19 05:20:37;;;;;;;21.80;10.60;;;2.90;99.90;;;;;;6253980;22;20319;-92
2021/03/19 05:23:18;;;;;;;24.05;10.98;;;2.90;99.90;;;;;;6228752;22;20011;-92
2021/03/19 05:25:47;;;;;;;21.23;10.45;;;2.80;99.90;;;;;;6228324;22;20020;-94
2021/03/19 05:28:19;;;;;;;19.23;9.73;;;2.80;99.90;;;;;;6228240;22;20024;-92
2021/03/19 05:30:53;;;;;;;18.03;8.90;;;2.80;99.90;;;;;;6230880;22;20016;-92
2021/03/19 05:33:22;;;;;;;17.58;9.73;;;2.80;99.90;;;;;;6230486;22;20022;-94
2021/03/19 05:35:50;;;;;;;18.88;9.30;;;2.80;99.90;;;;;;6229679;22;20015;-94
2021/03/19 05:38:19;;;;;;;17.50;8.95;;;2.90;99.90;;;;;;6254664;22;20315;-93
2021/03/19 05:40:52;;;;;;;19.08;9.05;;;2.90;99.90;;;;;;6255239;22;20023;-93
2021/03/19 05:43:29;;;;;;;17.45;8.25;;;2.90;99.90;;;;;;6282615;22;20016;-93
2021/03/19 05:46:00;;;;;;;14.93;7.88;;;2.90;99.90;;;;;;6256218;22;20020;-95
2021/03/19 05:48:39;;;;;;;13.68;7.20;;;3.00;99.90;;;;;;6229636;22;20019;-94
2021/03/19 05:51:18;;;;;;;12.57;6.95;;;3.00;99.90;;;;;;6231332;22;20016;-93
2021/03/19 05:53:57;;;;;;;14.90;6.72;;;3.00;99.90;;;;;;6214247;22;20012;-94
2021/03/19 05:56:31;;;;;;;12.20;5.97;;;3.00;99.90;;;;;;6233406;22;20041;-91
2021/03/19 05:59:06;;;;;;;11.63;5.82;;;3.00;99.90;;;;;;6234365;22;20019;-91
2021/03/19 06:01:41;;;;;;;11.30;6.45;;;3.10;99.90;;;;;;6259317;22;20015;-92
2021/03/19 06:04:20;;;;;;;11.25;5.35;;;3.00;99.90;;;;;;6234387;22;20022;-93
2021/03/19 06:06:54;;;;;;;10.05;4.97;;;3.10;99.90;;;;;;6281132;22;20020;-94
2021/03/19 06:09:30;;;;;;;9.30;4.77;;;3.10;99.90;;;;;;6255246;22;20030;-94
2021/03/19 06:12:03;;;;;;;12.60;5.30;;;3.00;99.90;;;;;;6254921;22;20446;-94
2021/03/19 06:14:47;;;;;;;13.90;5.70;;;3.10;99.90;;;;;;6254707;22;20427;-94
2021/03/19 06:17:25;;;;;;;11.27;5.80;;;3.10;99.90;;;;;;6229084;22;20023;-93
2021/03/19 06:19:55;;;;;;;13.47;5.77;;;3.10;99.90;;;;;;6231220;22;20023;-94
2021/03/19 06:22:33;;;;;;;13.25;5.55;;;3.10;99.90;;;;;;6230122;22;20020;-95
2021/03/19 06:25:15;;;;;;;13.95;6.40;;;3.20;99.90;;;;;;6228771;22;20015;-94
2021/03/19 06:27:52;;;;;;;15.27;5.68;;;3.10;99.90;;;;;;6283987;22;20015;-95
2021/03/19 06:30:30;;;;;;;12.20;6.18;;;3.10;99.90;;;;;;6286686;22;20448;-93
2021/03/19 06:33:07;;;;;;;12.38;6.28;;;3.00;99.90;;;;;;6260490;22;20016;-94
2021/03/19 06:35:41;;;;;;;12.75;6.38;;;3.10;99.90;;;;;;6287234;22;20015;-93
2021/03/19 06:38:34;;;;;;;15.57;6.38;;;3.10;99.90;;;;;;6261129;22;20025;-94
2021/03/19 06:41:24;;;;;;;13.90;6.13;;;3.20;99.90;;;;;;6261092;22;20029;-95
2021/03/19 06:44:12;;;;;;;11.20;5.65;;;3.20;99.90;;;;;;6241524;22;20011;-93
2021/03/19 06:46:43;;;;;;;11.63;5.43;;;3.20;99.90;;;;;;6261162;22;20015;-94
2021/03/19 06:49:12;;;;;;;11.65;5.45;;;3.30;99.90;;;;;;6261510;22;20254;-95
2021/03/19 06:51:44;;;;;;;12.35;6.22;;;3.40;99.90;;;;;;6264338;22;20015;-93
2021/03/19 06:54:16;;;;;;;15.25;6.72;;;3.40;99.90;;;;;;6276122;22;20019;-93
2021/03/19 06:57:19;;;;;;;11.55;6.35;;;3.60;99.90;;;;;;6276582;22;20023;-94
2021/03/19 06:59:52;;;;;;;15.20;6.43;;;3.70;99.90;;;;;;6272889;22;20023;-94
2021/03/19 07:02:56;;;;;;;12.82;6.00;;;3.80;99.90;;;;;;6293309;22;20019;-94
2021/03/19 07:05:54;;;;;;;15.55;6.30;;;3.90;99.90;;;;;;6260785;22;20038;-93
2021/03/19 07:08:56;;;;;;;12.27;5.90;;;4.00;99.90;;;;;;6262099;22;20023;-96
2021/03/19 07:11:46;;;;;;;10.63;5.97;;;4.00;99.90;;;;;;6263750;22;20023;-94
2021/03/19 07:18:00;;;;;;;14.48;5.95;;;4.00;99.90;;;;;;6251091;22;20023;-95
2021/03/19 07:21:00;;;;;;;13.93;6.45;;;4.00;99.90;;;;;;6288762;22;20326;-94
2021/03/19 07:23:40;;;;;;;14.38;6.53;;;4.10;99.90;;;;;;6266317;22;20275;-95
2021/03/19 07:26:16;;;;;;;17.08;7.60;;;4.20;99.90;;;;;;6278645;22;20021;-95
2021/03/19 07:29:19;;;;;;;19.95;8.45;;;4.30;99.90;;;;;;6271256;22;20019;-95
2021/03/19 07:32:17;;;;;;;21.15;9.60;;;4.30;99.90;;;;;;6152837;23;20012;-96
2021/03/19 07:35:15;;;;;;;15.52;7.65;;;4.50;99.90;;;;;;6158896;23;20017;-95
2021/03/19 07:38:09;;;;;;;16.27;7.55;;;4.50;99.90;;;;;;6144784;23;20321;-95
2021/03/19 07:40:52;;;;;;;19.35;8.02;;;4.50;99.90;;;;;;6143630;23;20059;-94
2021/03/19 07:43:51;;;;;;;16.10;8.27;;;4.70;99.90;;;;;;6140554;23;20017;-96
2021/03/19 07:46:26;;;;;;;19.55;8.77;;;4.70;99.90;;;;;;6140184;23;20328;-94
2021/03/19 07:49:34;;;;;;;19.65;9.35;;;4.80;99.90;;;;;;6139761;23;20017;-94
2021/03/19 07:52:22;;;;;;;18.63;8.32;;;4.90;99.90;;;;;;6164059;23;20448;-92
2021/03/19 07:54:55;;;;;;;21.58;9.30;;;5.00;99.90;;;;;;6140118;23;20337;-93
2021/03/19 07:57:36;;;;;;;20.85;8.48;;;5.20;99.90;;;;;;6139988;23;20017;-90
2021/03/19 08:00:14;;;;;;;19.20;8.35;;;5.40;99.90;;;;;;6168533;23;20029;-92
2021/03/19 08:03:14;;;;;;;22.35;9.27;;;5.50;99.90;;;;;;6152255;23;20020;-91
2021/03/19 08:05:47;;;;;;;23.80;9.43;;;5.50;99.90;;;;;;6108437;23;20348;-91
2021/03/19 08:08:19;;;;;;;23.13;9.18;;;5.50;99.90;;;;;;6200050;22;20029;-91
2021/03/19 08:11:02;;;;;;;20.45;9.82;;;5.40;99.90;;;;;;6293382;22;20026;-91
2021/03/19 08:13:44;;;;;;;24.83;9.45;;;5.40;99.90;;;;;;6297614;22;20011;-93
2021/03/19 08:16:19;;;;;;;22.58;9.98;;;5.60;99.90;;;;;;6270565;22;20331;-93
2021/03/19 08:18:54;;;;;;;22.42;10.20;;;5.70;99.90;;;;;;6268392;22;20038;-92
2021/03/19 08:21:33;;;;;;;25.42;10.18;;;5.80;99.90;;;;;;6296004;22;20019;-92
2021/03/19 08:24:23;;;;;;;23.92;10.63;;;5.70;99.90;;;;;;6301137;22;20025;-92
2021/03/19 08:27:02;;;;;;;23.20;10.02;;;5.90;99.90;;;;;;6255332;22;20034;-92
2021/03/19 08:29:40;;;;;;;28.98;12.13;;;6.10;99.90;;;;;;6276334;22;20016;-91
2021/03/19 08:32:41;;;;;;;24.15;10.52;;;6.30;99.90;;;;;;6263840;22;20464;-92
2021/03/19 08:35:19;;;;;;;26.30;11.48;;;6.20;99.90;;;;;;6266629;22;20015;-90
2021/03/19 08:37:51;;;;;;;;;;;6.00;99.90;;;;;;6285299;22;20029;-92
2021/03/19 08:40:34;;;;;;;31.45;12.10;;;6.00;99.90;;;;;;6260435;22;19929;-91
2021/03/19 08:43:08;;;;;;;23.42;10.98;;;6.10;99.90;;;;;;6259746;22;20107;-93
2021/03/19 08:45:35;;;;;;;27.92;12.63;;;6.20;99.90;;;;;;6258887;22;20015;-92
2021/03/19 08:48:12;;;;;;;32.90;12.40;;;6.50;99.90;;;;;;6258417;22;20019;-91
2021/03/19 08:50:43;;;;;;;31.75;11.68;;;6.70;99.90;;;;;;6260047;22;20022;-92
2021/03/19 08:53:17;;;;;;;26.55;11.70;;;6.80;99.90;;;;;;6260039;22;20034;-95
2021/03/19 08:55:48;;;;;;;23.85;11.30;;;6.70;99.90;;;;;;6258261;22;20011;-93
2021/03/19 08:58:48;;;;;;;27.02;12.85;;;6.60;99.90;;;;;;6257500;22;20026;-91
2021/03/19 09:01:50;;;;;;;27.92;12.20;;;6.20;99.90;;;;;;6256920;22;20015;-89
2021/03/19 09:05:03;;;;;;;26.55;11.50;;;5.90;99.90;;;;;;6282187;22;20015;-91
2021/03/19 09:07:37;;;;;;;26.38;11.48;;;5.80;99.90;;;;;;6310864;22;20030;-93
2021/03/19 09:10:33;;;;;;;23.25;11.18;;;5.80;99.90;;;;;;6285279;22;20038;-92
2021/03/19 09:13:21;;;;;;;25.35;9.68;;;5.70;99.90;;;;;;6257772;22;20327;-91
2021/03/19 09:15:51;;;;;;;21.40;9.65;;;5.50;99.90;;;;;;6258891;22;20015;-92
2021/03/19 09:18:41;;;;;;;24.70;10.15;;;5.50;99.90;;;;;;6257878;22;20033;-92
2021/03/19 09:21:30;;;;;;;21.77;9.60;;;5.50;99.90;;;;;;6258302;22;20040;-91
2021/03/19 09:24:15;;;;;;;22.55;9.45;;;5.70;99.90;;;;;;6284152;22;20454;-92
2021/03/19 09:26:54;;;;;;;19.40;9.80;;;5.70;99.90;;;;;;6258488;22;20015;-93
2021/03/19 09:29:38;;;;;;;20.92;9.10;;;5.70;99.90;;;;;;6259187;22;20023;-92
2021/03/19 09:32:36;;;;;;;17.65;8.00;;;5.80;99.90;;;;;;6258489;22;20015;-93
2021/03/19 09:35:16;;;;;;;17.40;8.90;;;5.80;99.90;;;;;;6257983;22;20026;-93
2021/03/19 09:37:53;;;;;;;19.92;8.88;;;5.80;99.90;;;;;;6258894;22;20022;-92
2021/03/19 09:40:48;;;;;;;21.67;9.45;;;5.70;99.90;;;;;;6258229;22;20015;-93
2021/03/19 09:43:46;;;;;;;18.83;9.20;;;5.60;99.90;;;;;;6260196;22;20034;-94
2021/03/19 09:46:23;;;;;;;21.00;9.25;;;5.50;99.90;;;;;;6264799;22;20034;-94
2021/03/19 09:49:00;;;;;;;20.02;9.82;;;5.40;99.90;;;;;;6246957;22;20023;-95
2021/03/19 09:51:44;;;;;;;19.80;8.65;;;5.40;99.90;;;;;;6272492;22;20023;-95
2021/03/19 09:54:34;;;;;;;20.30;9.63;;;5.50;99.90;;;;;;6270861;22;20015;-88
2021/03/19 09:57:11;;;;;;;20.88;9.45;;;5.90;99.90;;;;;;6277023;22;20023;-95
2021/03/19 09:59:43;;;;;;;20.65;8.85;;;6.20;99.90;;;;;;6296252;22;20030;-94
2021/03/19 10:02:30;;;;;;;18.27;8.10;;;6.60;99.90;;;;;;6264320;22;20019;-95
2021/03/19 10:05:18;;;;;;;23.00;10.15;;;7.60;99.90;;;;;;6288589;22;20022;-95
2021/03/19 10:07:53;;;;;;;17.65;8.02;;;8.20;97.80;;;;;;6287499;22;20319;-94
2021/03/19 10:10:28;;;;;;;21.83;9.43;;;8.70;94.20;;;;;;6263595;22;20539;-92
2021/03/19 10:13:07;;;;;;;22.10;10.43;;;9.00;92.50;;;;;;6285784;22;20026;-93
2021/03/19 10:15:36;;;;;;;17.55;8.32;;;8.90;91.30;;;;;;6258313;22;20394;-90
2021/03/19 10:18:07;;;;;;;15.23;7.85;;;8.80;90.30;;;;;;6279034;22;20024;-84
2021/03/19 10:20:37;;;;;;;19.55;8.35;;;8.60;90.60;;;;;;6253083;22;20019;-79
2021/03/19 10:23:13;;;;;;;27.88;10.75;;;8.20;91.20;;;;;;6249937;22;20106;-81
2021/03/19 10:25:42;;;;;;;16.13;8.90;;;8.10;99.90;;;;;;6250739;22;20293;-80
2021/03/19 10:28:25;;;;;;;27.20;9.02;;;8.70;99.90;;;;;;6223112;22;20020;-79
2021/03/19 10:30:55;;;;;;;22.23;8.90;;;9.40;96.10;;;;;;6248244;22;20016;-79
2021/03/19 10:33:31;;;;;;;19.05;8.75;;;10.40;94.00;;;;;;6285111;22;20426;-80
2021/03/19 10:36:06;;;;;;;19.20;9.00;;;10.40;79.80;;;;;;6274174;22;20410;-80
2021/03/19 10:38:40;;;;;;;22.05;7.47;;;10.30;75.80;;;;;;6275176;22;20034;-80
2021/03/19 10:41:21;;;;;;;15.35;7.57;;;9.90;75.60;;;;;;6225150;22;20020;-81
2021/03/19 10:43:53;;;;;;;17.15;7.38;;;9.90;76.50;;;;;;6240020;22;20019;-82
2021/03/19 10:46:32;;;;;;;40.78;9.32;;;10.30;74.60;;;;;;6231162;22;20019;-81
2021/03/19 10:49:04;;;;;;;16.38;7.70;;;10.80;71.50;;;;;;6251141;22;20335;-81
2021/03/19 10:51:38;;;;;;;25.15;7.45;;;11.80;67.70;;;;;;6250748;22;20023;-81
2021/03/19 10:54:17;;;;;;;18.90;6.55;;;13.10;60.60;;;;;;6250325;22;20019;-82
2021/03/19 10:56:48;;;;;;;48.40;9.10;;;14.70;54.70;;;;;;6248914;22;20019;-80
2021/03/19 10:59:21;;;;;;;15.85;5.53;;;16.00;49.30;;;;;;6224279;22;20023;-80
2021/03/19 11:01:51;;;;;;;33.38;6.50;;;16.40;46.30;;;;;;6274482;22;20035;-80
2021/03/19 11:04:33;;;;;;;50.95;8.23;;;16.60;46.20;;;;;;6249654;22;20016;-81
2021/03/19 11:07:32;;;;;;;17.92;5.70;;;16.80;45.50;;;;;;6249071;22;20027;-81
2021/03/19 11:10:10;;;;;;;10.32;4.72;;;17.60;44.90;;;;;;6273063;22;20031;-80
2021/03/19 11:12:41;;;;;;;16.70;5.45;;;18.60;42.40;;;;;;6221633;22;20042;-80
2021/03/19 11:15:12;;;;;;;40.70;6.78;;;19.20;40.70;;;;;;6248993;22;20016;-80
2021/03/19 11:17:39;;;;;;;17.65;4.97;;;20.10;39.30;;;;;;6253855;22;20023;-79
2021/03/19 11:20:22;;;;;;;14.13;4.85;;;19.70;37.20;;;;;;6286745;22;20023;-81
2021/03/19 11:22:51;;;;;;;20.45;5.40;;;18.60;37.50;;;;;;6291627;22;20019;-81
2021/03/19 11:25:43;;;;;;;12.17;4.23;;;18.40;38.70;;;;;;6257255;22;20025;-81
2021/03/19 11:28:26;;;;;;;9.68;4.47;;;18.20;38.30;;;;;;6254168;22;20023;-81
2021/03/19 11:30:54;;;;;;;16.35;4.63;;;19.00;38.00;;;;;;6276664;22;20311;-81
2021/03/19 11:33:21;;;;;;;13.90;3.30;;;19.40;36.40;;;;;;6276830;22;20145;-82
2021/03/19 11:36:09;;;;;;;21.90;4.88;;;18.90;36.10;;;;;;6252585;22;20419;-81
2021/03/19 11:38:38;;;;;;;8.23;4.15;;;17.80;37.00;;;;;;6278921;22;20323;-81
2021/03/19 11:41:27;;;;;;;14.18;3.50;;;17.00;38.60;;;;;;6304512;22;20019;-80
2021/03/19 11:43:54;;;;;;;8.52;3.70;;;17.20;37.10;;;;;;6279998;22;20034;-80
2021/03/19 11:46:25;;;;;;;9.20;3.55;;;17.60;36.90;;;;;;6281522;22;20019;-79
2021/03/19 11:48:53;;;;;;;12.65;3.50;;;17.60;36.80;;;;;;6254771;22;20023;-80
2021/03/19 11:51:30;;;;;;;9.55;3.60;;;17.10;36.80;;;;;;6254200;22;20019;-81
2021/03/19 11:53:59;;;;;;;32.90;4.72;;;16.80;37.00;;;;;;6254172;22;20023;-80
2021/03/19 11:56:29;;;;;;;7.68;2.38;;;16.30;37.90;;;;;;6280087;22;20322;-81
2021/03/19 11:58:57;;;;;;;16.17;3.63;;;15.80;37.80;;;;;;6294379;22;20013;-81
2021/03/19 12:01:29;;;;;;;9.70;2.50;;;16.00;38.70;;;;;;6299449;22;20033;-80
2021/03/19 12:03:57;;;;;;;5.55;2.30;;;16.80;37.80;;;;;;6285537;22;20049;-81
2021/03/19 12:06:28;;;;;;;7.57;2.85;;;17.00;36.50;;;;;;6255893;22;20015;-82
2021/03/19 12:08:58;;;;;;;7.00;3.05;;;17.10;37.30;;;;;;6256412;22;20023;-81
2021/03/19 12:11:32;;;;;;;11.20;2.20;;;17.20;36.10;;;;;;6277260;22;20043;-80
2021/03/19 12:14:00;;;;;;;11.30;2.25;;;17.00;36.00;;;;;;6255544;22;20299;-85
2021/03/19 12:16:31;;;;;;;4.65;1.83;;;16.60;36.30;;;;;;6258987;22;20019;-85
2021/03/19 12:18:58;;;;;;;7.30;2.28;;;16.50;36.20;;;;;;6240812;22;20027;-82
2021/03/19 12:21:26;;;;;;;8.40;2.53;;;16.40;36.80;;;;;;6319662;22;20015;-85
2021/03/19 12:23:54;;;;;;;11.48;2.35;;;16.70;37.60;;;;;;6269322;22;20712;-84
2021/03/19 12:26:21;;;;;;;5.90;2.20;;;17.20;37.30;;;;;;6262703;22;20034;-84
2021/03/19 12:28:48;;;;;;;7.97;2.22;;;17.80;35.70;;;;;;6257469;22;20023;-83
2021/03/19 12:31:19;;;;;;;4.63;1.75;;;17.70;36.00;;;;;;6300894;22;20009;-92
2021/03/19 12:33:47;;;;;;;6.28;2.63;;;17.90;35.40;;;;;;6273748;22;20039;-94
2021/03/19 12:36:19;;;;;;;18.98;3.20;;;17.20;35.70;;;;;;6291690;22;20025;-95
2021/03/19 12:38:59;;;;;;;10.05;2.58;;;16.20;37.60;;;;;;6270861;22;20034;-94
2021/03/19 12:41:27;;;;;;;10.80;3.40;;;14.90;39.30;;;;;;6238158;22;20028;-96
2021/03/19 12:44:01;;;;;;;8.57;2.87;;;13.60;42.30;;;;;;6265261;22;20020;-94
2021/03/19 12:46:32;;;;;;;6.50;2.75;;;12.50;43.80;;;;;;6260020;22;20311;-96
2021/03/19 12:49:00;;;;;;;6.22;2.40;;;11.60;45.90;;;;;;6235599;22;20022;-94
2021/03/19 12:51:32;;;;;;;23.35;3.28;;;10.90;47.50;;;;;;6235031;22;20020;-95
2021/03/19 12:54:07;;;;;;;6.60;2.42;;;10.30;49.60;;;;;;6234150;22;20465;-92
2021/03/19 12:56:35;;;;;;;8.30;2.60;;;9.80;49.70;;;;;;6256359;22;20027;-94
2021/03/19 12:59:04;;;;;;;6.15;2.85;;;9.30;50.90;;;;;;6232596;22;20034;-94
2021/03/19 13:01:31;;;;;;;6.18;2.35;;;9.10;52.60;;;;;;6257094;22;20016;-94
2021/03/19 13:03:59;;;;;;;7.78;2.45;;;8.90;53.40;;;;;;6232766;22;20427;-94
2021/03/19 13:53:03;;;;;;;7.25;3.17;;;8.00;69.20;;;;;;6214637;22;20004;-85
2021/03/19 13:55:30;;;;;;;5.78;2.80;;;9.40;66.00;;;;;;6190408;23;20515;-89
2021/03/19 13:58:00;;;;;;;5.87;3.03;;;11.60;60.90;;;;;;6187543;23;20025;-89
2021/03/19 14:00:31;;;;;;;10.82;3.13;;;14.30;55.00;;;;;;6161815;23;20759;-89
2021/03/19 14:02:59;;;;;;;5.10;2.42;;;16.40;50.20;;;;;;6160970;23;20029;-87
2021/03/19 14:05:30;;;;;;;6.15;3.05;;;17.60;46.90;;;;;;6165899;23;20017;-88
2021/03/19 14:07:58;;;;;;;5.40;2.72;;;18.70;46.20;;;;;;6187607;23;20035;-87
2021/03/19 14:10:30;;;;;;;7.45;2.45;;;19.50;43.30;;;;;;6164133;23;20021;-84
2021/03/19 14:12:58;;;;;;;6.45;2.72;;;20.20;41.50;;;;;;6163185;23;20029;-90
2021/03/19 14:15:28;;;;;;;4.05;2.10;;;20.60;42.60;;;;;;6159543;23;20737;-87
2021/03/19 14:17:55;;;;;;;11.10;1.90;;;21.40;36.60;;;;;;6180293;23;20029;-85
2021/03/19 14:20:26;;;;;;;5.20;2.50;;;22.20;35.30;;;;;;6182609;23;20573;-82
2021/03/19 14:22:54;;;;;;;6.20;2.28;;;23.00;32.60;;;;;;6158208;23;20041;-86
2021/03/19 14:25:23;;;;;;;5.40;1.95;;;22.80;32.70;;;;;;6184820;23;20029;-85
2021/03/19 14:27:52;;;;;;;;;;;23.20;32.10;;;;;;6160700;23;20021;-86
2021/03/19 14:30:22;;;;;;;5.05;2.40;;;23.80;31.40;;;;;;6160959;23;19916;-86
2021/03/19 14:32:51;;;;;;;5.40;1.73;;;23.40;30.70;;;;;;6164486;23;20031;-87
2021/03/19 14:35:20;;;;;;;5.20;1.40;;;22.60;31.60;;;;;;6187270;23;20036;-88
2021/03/19 14:37:48;;;;;;;3.65;1.90;;;21.80;32.20;;;;;;6194982;23;20021;-88
2021/03/19 14:40:20;;;;;;;7.30;2.33;;;21.30;32.30;;;;;;6179829;23;20017;-89
2021/03/19 15:08:39;;;;;;;2.45;0.70;;;6.30;99.90;;;;;;6217997;22;19904;-83
2021/03/19 15:11:35;;;;;;;1.42;0.70;;;6.20;99.90;;;;;;6140999;23;20093;-87
2021/03/19 15:20:26;;;;;;;2.90;0.70;;;7.30;99.90;;;;;;6208725;22;20013;-86
2021/03/19 15:23:05;;;;;;;1.70;0.90;;;7.60;99.90;;;;;;6217121;22;20072;-84
2021/03/19 15:31:11;;;;;;;2.80;1.23;;;8.80;99.90;;;;;;6120195;23;20110;-83
2021/03/19 15:33:38;;;;;;;2.30;1.00;;;10.70;95.10;;;;;;6105197;23;20018;-85
2021/03/19 15:36:07;;;;;;;2.65;1.38;;;12.40;81.70;;;;;;6098523;23;20522;-88
2021/03/19 15:38:35;;;;;;;0.85;0.60;;;13.60;67.20;;;;;;6098575;23;20329;-87
2021/03/19 15:41:05;;;;;;;2.67;1.20;;;13.10;63.40;;;;;;6099095;23;20485;-86
2021/03/19 15:43:36;;;;;;;1.80;0.95;;;12.20;67.10;;;;;;6091744;23;20020;-83
2021/03/19 15:46:07;;;;;;;3.10;1.23;;;11.20;71.00;;;;;;6097894;23;20033;-85
2021/03/19 15:48:37;;;;;;;3.08;1.40;;;10.30;75.90;;;;;;6121187;23;20082;-84
2021/03/19 15:51:07;;;;;;;4.18;1.50;;;9.60;80.70;;;;;;6098308;23;20077;-84
2021/03/19 15:53:40;;;;;;;2.42;1.30;;;9.20;88.60;;;;;;6096348;23;20029;-83
2021/03/19 15:56:15;;;;;;;2.72;1.05;;;8.50;91.00;;;;;;6097866;23;20018;-84
2021/03/19 15:58:45;;;;;;;3.78;1.80;;;7.90;93.60;;;;;;6098478;23;20074;-83
2021/03/19 16:01:15;;;;;;;2.22;1.20;;;7.50;95.90;;;;;;6098843;23;20107;-83
2021/03/19 16:03:47;;;;;;;6.25;1.80;;;7.10;98.60;;;;;;6099803;23;20053;-83
2021/03/19 16:06:16;;;;;;;6.68;2.05;;;6.70;99.90;;;;;;6124804;23;20062;-85
2021/03/19 16:08:51;;;;;;;3.45;1.23;;;6.50;99.90;;;;;;6098954;23;20085;-84
2021/03/19 16:11:21;;;;;;;2.75;1.33;;;6.10;99.90;;;;;;6096213;23;20082;-82
2021/03/19 16:13:50;;;;;;;3.25;1.33;;;5.90;99.90;;;;;;6123593;23;20058;-84
2021/03/19 16:16:18;;;;;;;3.83;1.65;;;5.80;99.90;;;;;;6154651;22;20013;-84
2021/03/19 16:21:55;;;;;;;4.15;1.58;;;5.70;99.90;;;;;;6256065;22;20008;-83
2021/03/19 16:24:24;;;;;;;4.40;1.60;;;5.60;99.90;;;;;;6250595;22;20063;-83
2021/03/19 16:27:07;;;;;;;5.05;2.20;;;5.70;99.90;;;;;;6249894;22;20072;-82
2021/03/19 16:29:41;;;;;;;3.40;1.17;;;5.80;99.90;;;;;;6225183;23;20048;-82
2021/03/19 16:32:17;;;;;;;3.30;1.45;;;5.80;99.90;;;;;;6210682;22;20035;-84
2021/03/19 16:34:45;;;;;;;6.03;1.30;;;5.80;99.90;;;;;;6217274;23;20064;-84
2021/03/19 16:37:26;;;;;;;4.10;1.48;;;5.60;99.90;;;;;;6209997;23;20023;-83
2021/03/19 16:40:00;;;;;;;5.35;2.20;;;5.50;99.90;;;;;;6179113;23;20031;-82
2021/03/19 16:42:30;;;;;;;3.25;1.45;;;5.40;99.90;;;;;;6174290;23;20027;-81
2021/03/19 16:45:06;;;;;;;3.28;1.65;;;5.30;99.90;;;;;;6226567;23;20021;-81
2021/03/19 16:47:34;;;;;;;3.78;1.58;;;5.30;99.90;;;;;;6176088;23;20023;-81
2021/03/19 16:50:19;;;;;;;3.75;1.58;;;5.20;99.90;;;;;;6224451;23;20017;-82
2021/03/19 16:52:52;;;;;;;4.45;1.52;;;5.10;99.90;;;;;;6203348;23;20449;-82
2021/03/19 16:55:26;;;;;;;3.15;1.35;;;5.00;99.90;;;;;;6239399;23;20023;-84
2021/03/19 16:57:59;;;;;;;4.43;1.35;;;5.00;99.90;;;;;;6194267;23;20064;-86
2021/03/19 17:06:34;;;;;;;2.78;1.60;;;4.90;99.90;;;;;;6225674;22;20020;-82